Time;durP1;ratioP1;P1;durP2;ratioP2;P2;SDS_P1;SDS_P2;PMS_P1;PMS_P2;Temp;Humidity;BMP_temperature;BMP_pressure;BME280_temperature;BME280_humidity;BME280_pressure;Samples;Min_cycle;Max_cycle;Signal;HPM_P1;HPM_P2
2022/01/25 00:26:46;;;;;;;32.33;15.97;;;;;;;-2.12;100.00;100199.13;5023840;28;20218;-68
2022/01/25 00:29:25;;;;;;;33.93;16.50;;;;;;;-2.07;100.00;100197.28;5030994;28;20698;-68
2022/01/25 00:31:52;;;;;;;32.20;15.63;;;;;;;-2.10;100.00;100194.78;5032064;28;20722;-69
2022/01/25 00:34:19;;;;;;;34.73;15.90;;;;;;;-2.15;100.00;100197.47;5031057;28;20717;-68
2022/01/25 00:36:47;;;;;;;32.37;15.60;;;;;;;-2.21;100.00;100196.75;5031658;28;20559;-68
2022/01/25 00:39:14;;;;;;;36.50;15.80;;;;;;;-2.23;100.00;100189.94;5031864;28;20191;-68
2022/01/25 00:41:41;;;;;;;36.57;16.63;;;;;;;-2.22;100.00;100190.78;5031948;28;20677;-68
2022/01/25 00:44:11;;;;;;;30.13;15.37;;;;;;;-2.28;100.00;100178.97;5044664;28;20301;-68
2022/01/25 00:46:38;;;;;;;35.60;15.83;;;;;;;-2.15;100.00;100184.66;5031529;28;20705;-67
2022/01/25 00:49:05;;;;;;;34.63;16.47;;;;;;;-2.22;100.00;100188.22;5031421;28;20193;-69
2022/01/25 00:54:28;;;;;;;32.40;13.83;;;;;;;-2.29;100.00;100179.84;4996597;28;20225;-69
2022/01/25 00:56:56;;;;;;;33.97;14.57;;;;;;;-2.31;100.00;100176.47;5031578;28;20182;-69
2022/01/25 00:59:25;;;;;;;30.17;14.50;;;;;;;-2.36;100.00;100178.28;5031763;28;20210;-68
2022/01/25 01:01:54;;;;;;;28.70;14.07;;;;;;;-2.41;100.00;100175.78;5031472;28;20221;-67
2022/01/25 01:04:21;;;;;;;33.53;14.70;;;;;;;-2.43;100.00;100179.28;5030674;28;20465;-67
2022/01/25 01:06:49;;;;;;;26.57;13.70;;;;;;;-2.39;100.00;100174.06;5030912;28;20214;-67
2022/01/25 01:09:18;;;;;;;30.03;15.63;;;;;;;-2.39;100.00;100175.78;5031909;28;20183;-68
2022/01/25 01:11:53;;;;;;;34.37;14.83;;;;;;;-2.38;100.00;100174.91;5031340;28;20727;-69
2022/01/25 01:14:27;;;;;;;33.93;14.70;;;;;;;-2.40;100.00;100182.59;5027699;28;20251;-69
2022/01/25 01:17:19;;;;;;;28.47;13.50;;;;;;;-2.37;100.00;100182.53;5030002;28;20194;-66
2022/01/25 01:31:05;;;;;;;28.47;13.97;;;;;;;-2.45;100.00;100193.81;4985574;28;20209;-68
2022/01/25 01:39:25;;;;;;;30.50;14.43;;;;;;;-2.54;100.00;100190.53;5010166;28;20543;-68
2022/01/25 01:42:15;;;;;;;29.57;14.13;;;;;;;-2.53;100.00;100178.59;5029130;28;20304;-68
2022/01/25 01:45:06;;;;;;;31.40;14.03;;;;;;;-2.57;100.00;100182.94;5023322;28;20210;-68
2022/01/25 01:47:44;;;;;;;31.37;14.73;;;;;;;-2.57;100.00;100184.63;5028651;28;20217;-68
2022/01/25 01:50:15;;;;;;;31.30;15.30;;;;;;;-2.56;100.00;100186.31;5029499;28;20272;-68
2022/01/25 01:52:42;;;;;;;33.10;14.43;;;;;;;-2.57;100.00;100184.63;5009960;28;20219;-66
2022/01/25 01:55:10;;;;;;;32.83;15.60;;;;;;;-2.64;100.00;100186.47;5028972;28;20194;-68
2022/01/25 01:57:37;;;;;;;30.63;15.27;;;;;;;-2.68;100.00;100193.38;5029244;28;20200;-69
2022/01/25 02:00:06;;;;;;;32.57;16.03;;;;;;;-2.67;100.00;100189.94;5029329;28;20659;-69
2022/01/25 02:02:38;;;;;;;29.93;16.20;;;;;;;-2.70;100.00;100187.44;5026891;28;20217;-69
2022/01/25 02:05:06;;;;;;;39.37;17.67;;;;;;;-2.64;100.00;100193.28;5028549;28;20196;-68
2022/01/25 02:07:33;;;;;;;41.40;18.80;;;;;;;-2.68;100.00;100195.91;5029051;28;20651;-68
2022/01/25 02:10:00;;;;;;;36.60;17.80;;;;;;;-2.64;100.00;100183.06;5045841;28;20573;-68
2022/01/25 02:12:28;;;;;;;40.07;17.50;;;;;;;-2.65;100.00;100189.06;5030841;28;20206;-69
2022/01/25 02:14:55;;;;;;;39.70;18.37;;;;;;;-2.60;100.00;100193.22;5029858;28;20476;-68
2022/01/25 02:17:51;;;;;;;36.50;18.07;;;;;;;-2.63;100.00;100189.84;5029743;28;20209;-67
2022/01/25 02:23:01;;;;;;;36.60;17.80;;;;;;;-2.69;100.00;100191.69;5000012;28;20225;-67
2022/01/25 02:25:28;;;;;;;37.07;17.60;;;;;;;-2.72;100.00;100193.44;5012148;28;20205;-68
2022/01/25 02:27:55;;;;;;;36.30;17.43;;;;;;;-2.73;100.00;100192.59;5030714;28;20260;-67
2022/01/25 02:30:22;;;;;;;36.37;17.20;;;;;;;-2.71;100.00;100195.13;5030633;28;20205;-67
2022/01/25 02:32:48;;;;;;;36.90;16.87;;;;;;;-2.73;100.00;100201.97;5030493;28;20226;-68
2022/01/25 02:35:16;;;;;;;33.97;16.40;;;;;;;-2.72;100.00;100196.84;5029899;28;20194;-68
2022/01/25 02:37:44;;;;;;;30.33;15.47;;;;;;;-2.72;100.00;100198.53;5030467;28;20187;-68
2022/01/25 02:40:11;;;;;;;34.17;14.67;;;;;;;-2.75;100.00;100199.47;5030730;28;20193;-68
2022/01/25 02:42:37;;;;;;;32.07;15.80;;;;;;;-2.77;100.00;100198.63;5012735;28;20226;-68
2022/01/25 02:45:10;;;;;;;32.07;15.70;;;;;;;-2.76;100.00;100192.66;5030272;28;20256;-68
2022/01/25 02:50:22;;;;;;;32.50;16.23;;;;;;;-2.78;100.00;100199.50;5030322;28;20218;-68
2022/01/25 02:52:49;;;;;;;35.57;16.80;;;;;;;-2.79;100.00;100192.72;5030531;28;20221;-68
2022/01/25 02:55:17;;;;;;;34.23;17.23;;;;;;;-2.78;100.00;100196.97;5029803;28;20265;-68
2022/01/25 02:57:44;;;;;;;36.57;18.10;;;;;;;-2.81;100.00;100189.34;5030275;28;20183;-68
2022/01/25 03:00:12;;;;;;;40.10;18.33;;;;;;;-2.77;100.00;100185.88;5030151;28;20221;-68
2022/01/25 03:02:39;;;;;;;36.30;17.10;;;;;;;-2.83;100.00;100184.25;5012456;28;20213;-68
2022/01/25 03:05:07;;;;;;;43.90;23.00;;;;;;;-2.86;100.00;100181.75;5029040;28;20486;-67
2022/01/25 03:07:38;;;;;;;44.17;20.67;;;;;;;-2.87;100.00;100171.56;5030320;28;20218;-68
2022/01/25 03:10:06;;;;;;;43.43;19.77;;;;;;;-2.88;100.00;100174.97;5012546;28;20199;-67
2022/01/25 03:12:40;;;;;;;46.90;21.33;;;;;;;-2.86;100.00;100170.69;5030236;28;20619;-68
2022/01/25 03:15:29;;;;;;;42.33;19.77;;;;;;;-2.80;100.00;100172.28;5029443;28;20189;-66
2022/01/25 03:17:59;;;;;;;41.70;20.43;;;;;;;-2.84;100.00;100166.41;5030047;28;20198;-67
2022/01/25 03:20:48;;;;;;;41.13;20.23;;;;;;;-2.95;100.00;100158.91;5030215;28;20248;-67
2022/01/25 03:23:19;;;;;;;46.27;20.27;;;;;;;-3.00;100.00;100153.88;5030081;28;20210;-68
2022/01/25 03:25:48;;;;;;;44.00;21.03;;;;;;;-2.96;100.00;100159.78;5029527;28;20667;-68
2022/01/25 03:28:15;;;;;;;42.70;20.40;;;;;;;-2.93;100.00;100158.88;5030046;28;20233;-68
2022/01/25 03:30:42;;;;;;;45.23;21.40;;;;;;;-2.93;100.00;100162.28;5033697;28;20237;-68
2022/01/25 03:33:08;;;;;;;48.10;22.23;;;;;;;-2.92;100.00;100163.97;5033794;28;20214;-68
2022/01/25 03:35:35;;;;;;;48.80;23.00;;;;;;;-2.95;100.00;100164.00;5032897;28;20188;-67
2022/01/25 03:38:02;;;;;;;44.27;21.37;;;;;;;-2.94;100.00;100168.25;5033355;28;20189;-67
2022/01/25 03:40:31;;;;;;;50.43;23.27;;;;;;;-2.92;100.00;100168.25;5033637;28;20190;-67
2022/01/25 03:42:59;;;;;;;47.37;23.50;;;;;;;-2.97;100.00;100166.59;5033213;28;20218;-67
2022/01/25 03:45:31;;;;;;;58.00;24.40;;;;;;;-2.91;100.00;100170.75;5029571;28;20653;-66
2022/01/25 03:49:47;;;;;;;48.57;22.77;;;;;;;-2.93;100.00;100175.06;5032301;28;20292;-66
2022/01/25 03:50:47;;;;;;;52.40;23.87;;;;;;;-2.96;100.00;100172.53;5031404;28;20202;-68
2022/01/25 03:53:16;;;;;;;50.67;22.87;;;;;;;-2.98;100.00;100177.69;5033313;28;20209;-68
2022/01/25 03:55:45;;;;;;;52.37;24.20;;;;;;;-2.99;100.00;100168.34;5032028;28;20194;-67
2022/01/25 03:58:12;;;;;;;52.30;21.93;;;;;;;-3.01;100.00;100172.63;5029294;28;20244;-67
2022/01/25 04:00:40;;;;;;;47.20;22.63;;;;;;;-3.09;100.00;100171.94;5011767;28;20209;-67
2022/01/25 04:03:12;;;;;;;49.23;22.80;;;;;;;-3.14;100.00;100176.28;5031374;28;20213;-67
2022/01/25 04:05:49;;;;;;;64.18;34.08;;;;;;;-3.12;100.00;100174.53;5027293;28;20425;-67
2022/01/25 04:08:17;;;;;;;56.37;26.50;;;;;;;-3.11;100.00;100173.66;5032735;28;20240;-67
2022/01/25 04:10:45;;;;;;;57.03;24.83;;;;;;;-3.12;100.00;100188.13;5032760;28;20193;-67
2022/01/25 04:13:12;;;;;;;54.17;24.40;;;;;;;-3.12;100.00;100182.19;5032861;28;20685;-66
2022/01/25 04:15:41;;;;;;;58.13;25.53;;;;;;;-3.12;100.00;100185.56;5014456;28;20190;-68
2022/01/25 04:21:00;;;;;;;52.67;23.87;;;;;;;-3.11;100.00;100184.72;5014646;28;20206;-68
2022/01/25 04:26:09;;;;;;;53.47;23.47;;;;;;;-3.17;100.00;100182.25;4998598;28;20247;-67
2022/01/25 04:28:36;;;;;;;55.57;23.93;;;;;;;-3.14;100.00;100187.31;5032495;28;20681;-67
2022/01/25 04:31:02;;;;;;;52.40;23.13;;;;;;;-3.16;100.00;100178.84;5032609;28;20214;-67
2022/01/25 04:33:39;;;;;;;51.53;23.30;;;;;;;-3.19;100.00;100178.06;5032583;28;20213;-67
2022/01/25 04:36:25;;;;;;;53.73;24.20;;;;;;;-3.23;100.00;100182.38;5032177;28;20689;-67
2022/01/25 04:49:54;;;;;;;59.00;24.20;;;;;;;-3.05;100.00;100175.25;5031821;28;20226;-68
2022/01/25 04:52:25;;;;;;;48.97;22.97;;;;;;;-3.09;100.00;100178.72;5032085;28;20733;-68
2022/01/25 04:54:59;;;;;;;51.80;23.63;;;;;;;-3.12;100.00;100177.91;5031478;28;20185;-68
2022/01/25 04:57:40;;;;;;;52.10;23.27;;;;;;;-3.13;100.00;100176.22;5031773;28;20186;-68
2022/01/25 05:00:15;;;;;;;48.93;21.63;;;;;;;-3.14;100.00;100173.72;5032285;28;20203;-67
2022/01/25 05:02:48;;;;;;;48.40;22.63;;;;;;;-3.15;100.00;100172.84;5031919;28;20515;-67
2022/01/25 05:05:20;;;;;;;47.93;22.37;;;;;;;-3.16;100.00;100178.00;5031518;28;20378;-67
2022/01/25 05:07:54;;;;;;;46.93;22.47;;;;;;;-3.17;100.00;100174.59;5014027;28;20226;-67
2022/01/25 05:10:21;;;;;;;48.40;22.13;;;;;;;-3.15;100.00;100172.03;5031923;28;20670;-67
2022/01/25 05:12:54;;;;;;;52.27;22.60;;;;;;;-3.22;100.00;100166.19;5031686;28;20209;-67
2022/01/25 05:15:26;;;;;;;52.37;23.90;;;;;;;-3.21;100.00;100167.88;5031084;28;20194;-67
2022/01/25 05:18:08;;;;;;;51.03;23.60;;;;;;;-3.19;100.00;100168.69;5031799;28;20184;-67
2022/01/25 05:23:19;;;;;;;54.83;23.03;;;;;;;-3.23;100.00;100164.50;5031513;28;20287;-67
2022/01/25 05:25:46;;;;;;;55.67;23.93;;;;;;;-3.22;100.00;100166.19;5030951;28;20196;-67
2022/01/25 05:28:14;;;;;;;50.70;23.77;;;;;;;-3.24;100.00;100159.41;5031753;28;20669;-67
2022/01/25 05:30:41;;;;;;;51.87;23.80;;;;;;;-3.20;100.00;100161.03;5031546;28;20224;-67
2022/01/25 05:33:08;;;;;;;53.67;22.90;;;;;;;-3.23;100.00;100167.06;5013733;28;20224;-67
2022/01/25 05:35:35;;;;;;;50.17;23.47;;;;;;;-3.23;100.00;100164.50;5027143;28;20198;-67
2022/01/25 05:38:02;;;;;;;50.70;23.37;;;;;;;-3.23;100.00;100167.06;5023728;28;20669;-67
2022/01/25 05:40:42;;;;;;;58.73;24.20;;;;;;;-3.26;100.00;100165.38;5030986;28;20190;-67
2022/01/25 05:46:10;;;;;;;48.97;20.17;;;;;;;-3.31;100.00;100174.00;5030622;28;20190;-67
2022/01/25 05:48:38;;;;;;;48.07;22.00;;;;;;;-3.32;100.00;100179.97;5031360;28;20205;-67
2022/01/25 05:51:04;;;;;;;42.60;20.80;;;;;;;-3.28;100.00;100176.50;5031026;28;20245;-66
2022/01/25 05:53:32;;;;;;;52.13;21.17;;;;;;;-3.31;100.00;100181.66;5030575;28;20257;-66
2022/01/25 05:55:59;;;;;;;48.57;21.87;;;;;;;-3.37;100.00;100182.59;5030928;28;20229;-66
2022/01/25 05:58:26;;;;;;;45.50;21.53;;;;;;;-3.45;100.00;100175.06;5028824;28;20182;-67
2022/01/25 06:00:54;;;;;;;48.17;21.60;;;;;;;-3.49;100.00;100186.19;5030249;28;20235;-68
2022/01/25 06:03:21;;;;;;;48.43;21.60;;;;;;;-3.49;100.00;100190.44;5030527;28;20225;-66
2022/01/25 06:05:48;;;;;;;53.27;22.30;;;;;;;-3.49;100.00;100187.88;5030260;28;20662;-67
2022/01/25 06:08:15;;;;;;;47.83;20.83;;;;;;;-3.50;100.00;100179.38;5030512;28;20202;-68
2022/01/25 06:10:42;;;;;;;48.17;22.13;;;;;;;-3.44;100.00;100181.84;5030777;28;20247;-68
2022/01/25 06:13:09;;;;;;;53.23;23.60;;;;;;;-3.34;100.00;100179.97;5030817;28;20457;-67
2022/01/25 06:15:36;;;;;;;45.60;21.27;;;;;;;-3.34;100.00;100181.72;5028608;28;20212;-66
2022/01/25 06:18:04;;;;;;;50.57;22.93;;;;;;;-3.29;100.00;100174.81;5012992;28;20680;-67
2022/01/25 06:20:32;;;;;;;54.53;23.23;;;;;;;-3.27;100.00;100175.63;5030659;28;20193;-67
2022/01/25 06:23:00;;;;;;;58.67;23.97;;;;;;;-3.31;100.00;100174.81;5027135;28;20209;-67
2022/01/25 06:25:26;;;;;;;49.73;23.73;;;;;;;-3.28;100.00;100187.53;5029688;28;20256;-67
2022/01/25 06:27:53;;;;;;;54.63;24.10;;;;;;;-3.33;100.00;100178.28;5030051;28;20190;-67
2022/01/25 06:30:22;;;;;;;53.27;23.33;;;;;;;-3.32;100.00;100175.69;5030583;28;20198;-67
2022/01/25 06:32:49;;;;;;;52.73;23.93;;;;;;;-3.23;100.00;100163.66;5030578;28;20214;-66
2022/01/25 06:35:17;;;;;;;49.10;22.40;;;;;;;-3.24;100.00;100172.19;5029707;28;20185;-67
2022/01/25 06:37:46;;;;;;;53.80;22.83;;;;;;;-3.33;100.00;100176.56;5030526;28;20677;-67
2022/01/25 06:40:13;;;;;;;51.23;23.13;;;;;;;-3.36;100.00;100178.34;5030566;28;20182;-66
2022/01/25 06:42:40;;;;;;;49.17;23.30;;;;;;;-3.34;100.00;100181.72;5030391;28;20259;-66
2022/01/25 06:45:13;;;;;;;53.13;21.50;;;;;;;-3.29;100.00;100178.19;5029827;28;20184;-66
2022/01/25 06:47:40;;;;;;;51.67;22.17;;;;;;;-3.32;100.00;100183.34;5030271;28;20196;-66
2022/01/25 06:50:08;;;;;;;54.70;23.10;;;;;;;-3.37;100.00;100191.97;5030737;28;20220;-66
2022/01/25 06:52:38;;;;;;;46.23;21.10;;;;;;;-3.37;100.00;100187.69;5030399;28;20206;-66
2022/01/25 06:55:06;;;;;;;49.07;21.97;;;;;;;-3.35;100.00;100196.16;5029804;28;20181;-67
2022/01/25 06:57:33;;;;;;;52.57;23.83;;;;;;;-3.32;100.00;100195.28;5030530;28;20190;-67
2022/01/25 07:00:00;;;;;;;57.43;24.43;;;;;;;-3.29;100.00;100200.34;5030727;28;20189;-68
2022/01/25 07:02:28;;;;;;;51.17;24.37;;;;;;;-3.31;100.00;100202.09;5030232;28;20206;-68
2022/01/25 07:04:55;;;;;;;61.40;31.60;;;;;;;-3.34;100.00;100205.53;5031762;28;20433;-67
2022/01/25 07:07:21;;;;;;;54.47;25.73;;;;;;;-3.36;100.00;100211.53;5033998;28;20181;-68
2022/01/25 07:09:49;;;;;;;51.43;24.90;;;;;;;-3.33;100.00;100216.59;5033333;28;20212;-68
2022/01/25 07:12:16;;;;;;;50.67;23.47;;;;;;;-3.31;100.00;100220.78;5032345;28;20240;-67
2022/01/25 07:14:43;;;;;;;49.80;24.13;;;;;;;-3.33;100.00;100224.25;5032774;28;20641;-68
2022/01/25 07:17:10;;;;;;;50.00;22.67;;;;;;;-3.36;100.00;100229.41;5034000;28;20219;-66
2022/01/25 07:19:37;;;;;;;52.70;23.60;;;;;;;-3.37;100.00;100231.09;5033743;28;20184;-66
2022/01/25 07:22:04;;;;;;;53.33;23.20;;;;;;;-3.33;100.00;100235.28;5033767;28;20645;-66
2022/01/25 07:24:32;;;;;;;61.80;25.40;;;;;;;-3.31;100.00;100238.66;5032965;28;20187;-67
2022/01/25 07:27:00;;;;;;;55.30;25.97;;;;;;;-3.27;100.00;100247.97;5034318;28;20273;-67
2022/01/25 07:29:27;;;;;;;59.87;28.50;;;;;;;-3.23;100.00;100246.22;5033625;28;20207;-68
2022/01/25 07:31:55;;;;;;;78.55;38.05;;;;;;;-3.08;100.00;100249.38;5015359;28;20451;-72
2022/01/25 07:34:22;;;;;;;60.97;29.73;;;;;;;-3.08;100.00;100252.81;5032924;28;20712;-72
2022/01/25 07:36:49;;;;;;;54.67;23.67;;;;;;;-3.09;100.00;100245.16;5033511;28;20191;-72
2022/01/25 07:39:15;;;;;;;52.60;22.67;;;;;;;-3.07;100.00;100240.84;5033576;28;20190;-70
2022/01/25 07:41:43;;;;;;;56.33;23.73;;;;;;;-3.04;100.00;100248.47;5033527;28;20694;-71
2022/01/25 07:44:12;;;;;;;46.83;21.93;;;;;;;-3.04;100.00;100243.38;5013357;28;20218;-71
2022/01/25 07:46:39;;;;;;;49.60;22.80;;;;;;;-2.99;100.00;100244.13;5028983;28;20187;-70
2022/01/25 07:49:07;;;;;;;51.87;22.23;;;;;;;-2.94;100.00;100250.03;5030934;28;20281;-71
2022/01/25 07:51:35;;;;;;;59.47;27.17;;;;;;;-2.88;100.00;100251.66;5033080;28;20245;-71
2022/01/25 07:54:03;;;;;;;63.60;29.50;;;;;;;-2.84;100.00;100245.63;5032390;28;20239;-71
2022/01/25 07:56:30;;;;;;;64.73;30.90;;;;;;;-2.80;100.00;100238.72;5015180;28;20618;-71
2022/01/25 07:58:56;;;;;;;57.63;24.83;;;;;;;-2.78;100.00;100235.28;5033418;28;20249;-72
2022/01/25 08:01:26;;;;;;;48.53;23.87;;;;;;;-2.74;100.00;100233.50;5033199;28;20663;-72
2022/01/25 08:03:53;;;;;;;50.10;22.43;;;;;;;-2.69;100.00;100232.56;5032407;28;20284;-72
2022/01/25 08:06:21;;;;;;;49.90;23.70;;;;;;;-2.65;100.00;100233.34;5033060;28;20191;-72
2022/01/25 08:08:48;;;;;;;51.80;23.97;;;;;;;-2.64;100.00;100232.47;5032943;28;20202;-72
2022/01/25 08:11:15;;;;;;;49.80;23.87;;;;;;;-2.61;100.00;100229.00;5032938;28;20209;-72
2022/01/25 08:13:47;;;;;;;53.00;24.03;;;;;;;-2.56;100.00;100232.34;5032653;28;20210;-71
2022/01/25 08:16:14;;;;;;;55.57;26.33;;;;;;;-2.54;100.00;100228.91;5031572;28;20200;-71
2022/01/25 08:18:42;;;;;;;55.80;26.77;;;;;;;-2.50;100.00;100227.09;5033150;28;20182;-72
2022/01/25 08:21:09;;;;;;;53.10;26.27;;;;;;;-2.47;100.00;100227.06;5032868;28;20269;-71
2022/01/25 08:23:37;;;;;;;59.80;27.23;;;;;;;-2.42;100.00;100227.81;5032117;28;20229;-71
2022/01/25 08:26:04;;;;;;;57.93;28.33;;;;;;;-2.38;100.00;100228.63;5032427;28;20185;-72
2022/01/25 08:28:32;;;;;;;62.30;29.73;;;;;;;-2.38;100.00;100229.44;5032395;28;20194;-72
2022/01/25 08:30:59;;;;;;;58.83;28.77;;;;;;;-2.34;100.00;100231.94;5032758;28;20186;-71
2022/01/25 08:33:26;;;;;;;54.00;25.90;;;;;;;-2.31;100.00;100235.31;5032532;28;20226;-72
2022/01/25 08:35:54;;;;;;;60.97;34.10;;;;;;;-2.23;100.00;100243.69;5030683;28;20442;-72
2022/01/25 08:38:21;;;;;;;56.87;26.93;;;;;;;-2.17;100.00;100237.59;5032471;28;20209;-73
2022/01/25 08:40:48;;;;;;;53.83;25.53;;;;;;;-2.09;100.00;100242.53;5032460;28;20647;-73
2022/01/25 08:43:15;;;;;;;48.03;22.27;;;;;;;-2.08;100.00;100239.09;5032236;28;20221;-70
2022/01/25 08:45:42;;;;;;;51.10;21.17;;;;;;;-2.04;100.00;100235.59;5031630;28;20199;-71
2022/01/25 08:48:09;;;;;;;44.53;22.40;;;;;;;-2.00;100.00;100234.69;5032432;28;20365;-71
2022/01/25 08:50:36;;;;;;;51.60;22.27;;;;;;;-1.89;100.00;100237.03;5032065;28;20219;-71
2022/01/25 08:53:07;;;;;;;49.47;23.43;;;;;;;-1.82;100.00;100230.06;5032192;28;20211;-71
2022/01/25 08:55:34;;;;;;;44.43;21.97;;;;;;;-1.81;100.00;100230.03;5031407;28;20195;-72
2022/01/25 08:58:01;;;;;;;49.07;22.03;;;;;;;-1.71;100.00;100235.78;5031999;28;20219;-72
2022/01/25 09:00:28;;;;;;;41.63;20.33;;;;;;;-1.63;100.00;100235.66;5032184;28;20188;-72
2022/01/25 09:02:55;;;;;;;48.70;21.17;;;;;;;-1.56;100.00;100238.91;5031966;28;20218;-72
2022/01/25 09:05:22;;;;;;;43.40;20.70;;;;;;;-1.50;100.00;100237.03;5031186;28;20305;-72
2022/01/25 09:07:52;;;;;;;44.03;22.00;;;;;;;-1.43;100.00;100232.63;5031819;28;20206;-72
2022/01/25 09:10:20;;;;;;;46.70;20.50;;;;;;;-1.35;100.00;100235.84;5031812;28;20215;-72
2022/01/25 09:12:47;;;;;;;41.87;20.13;;;;;;;-1.28;100.00;100228.84;5031873;28;20269;-72
2022/01/25 09:15:17;;;;;;;44.60;21.73;;;;;;;-1.21;100.00;100237.25;5031063;28;20180;-71
2022/01/25 09:17:44;;;;;;;47.33;21.57;;;;;;;-1.14;100.00;100233.69;5031598;28;20215;-72
2022/01/25 09:20:11;;;;;;;44.93;21.20;;;;;;;-1.02;100.00;100236.78;5031830;28;20187;-72
2022/01/25 09:22:38;;;;;;;47.83;21.67;;;;;;;-0.97;100.00;100240.94;5031942;28;20206;-72
2022/01/25 09:25:06;;;;;;;46.03;22.50;;;;;;;-0.90;100.00;100232.22;5030860;28;20212;-73
2022/01/25 09:27:34;;;;;;;48.63;24.60;;;;;;;-0.84;100.00;100225.28;5031175;28;20184;-72
2022/01/25 09:30:01;;;;;;;49.80;23.80;;;;;;;-0.74;100.00;100226.72;5031391;28;20203;-72
2022/01/25 09:32:28;;;;;;;49.87;25.07;;;;;;;-0.64;100.00;100230.75;5031278;28;20211;-73
2022/01/25 09:34:55;;;;;;;57.77;29.23;;;;;;;-0.56;100.00;100230.53;5030120;28;20438;-73
2022/01/25 09:37:22;;;;;;;49.07;24.83;;;;;;;-0.52;100.00;100237.25;5031575;28;20500;-72
2022/01/25 09:39:49;;;;;;;60.87;29.43;;;;;;;-0.36;100.00;100235.13;5031355;28;20183;-72
2022/01/25 09:42:17;;;;;;;66.10;33.13;;;;;;;-0.22;100.00;100236.47;5029822;28;20198;-71
2022/01/25 09:44:45;;;;;;;65.33;33.53;;;;;;;-0.18;100.00;100238.06;5026182;28;20222;-72
2022/01/25 09:47:12;;;;;;;63.87;32.37;;;;;;;-0.19;100.00;100247.50;5030881;28;20646;-72
2022/01/25 09:49:38;;;;;;;61.47;32.50;;;;;;;-0.33;100.00;100247.84;5030774;28;20218;-72
2022/01/25 09:52:07;;;;;;;62.07;30.83;;;;;;;-0.27;100.00;100243.44;5031032;28;20191;-72
2022/01/25 09:54:35;;;;;;;58.77;28.83;;;;;;;-0.36;100.00;100250.50;5030491;28;20189;-71
2022/01/25 09:57:04;;;;;;;56.17;29.83;;;;;;;-0.29;100.00;100258.91;5031228;28;20187;-72
2022/01/25 09:59:32;;;;;;;55.37;30.77;;;;;;;-0.26;100.00;100255.41;5013126;28;20214;-73
2022/01/25 10:02:00;;;;;;;57.67;29.47;;;;;;;-0.26;100.00;100263.94;5030962;28;20185;-71
2022/01/25 10:04:33;;;;;;;56.53;29.80;;;;;;;-0.21;100.00;100256.97;5030083;28;20593;-70
2022/01/25 10:07:00;;;;;;;60.30;31.27;;;;;;;-0.13;100.00;100261.88;5030921;28;20226;-71
2022/01/25 10:09:28;;;;;;;57.93;30.03;;;;;;;-0.02;100.00;100257.28;5030796;28;20198;-71
2022/01/25 10:11:56;;;;;;;56.03;29.93;;;;;;;0.05;100.00;100252.81;5030612;28;20211;-72
2022/01/25 10:14:25;;;;;;;54.43;28.93;;;;;;;0.11;100.00;100254.38;5029971;28;20206;-72
2022/01/25 10:16:54;;;;;;;55.00;29.37;;;;;;;0.16;100.00;100255.09;5029374;28;20205;-73
2022/01/25 10:19:27;;;;;;;54.80;31.10;;;;;;;0.23;100.00;100248.03;5030934;28;20179;-71
2022/01/25 10:21:54;;;;;;;60.43;31.07;;;;;;;0.21;100.00;100247.25;5030705;28;20234;-72
2022/01/25 10:24:24;;;;;;;60.03;32.30;;;;;;;0.28;100.00;100248.75;5029744;28;20211;-71
2022/01/25 10:26:53;;;;;;;57.40;30.40;;;;;;;0.38;100.00;100244.19;5030535;28;20180;-71
2022/01/25 10:29:23;;;;;;;53.40;30.33;;;;;;;0.46;100.00;100243.94;5030587;28;20194;-71
2022/01/25 10:31:54;;;;;;;60.10;30.60;;;;;;;0.54;100.00;100235.09;5030619;28;20190;-72
2022/01/25 10:34:26;;;;;;;73.37;38.20;;;;;;;0.61;100.00;100250.34;5029792;28;20425;-72
2022/01/25 10:36:54;;;;;;;68.17;34.20;;;;;;;0.68;100.00;100250.13;5030527;28;20219;-72
2022/01/25 10:39:23;;;;;;;57.83;31.80;;;;;;;0.74;100.00;100251.66;5032713;28;20187;-72
2022/01/25 10:41:50;;;;;;;55.10;29.17;;;;;;;0.87;97.49;100247.81;5033493;28;20224;-72
2022/01/25 10:44:17;;;;;;;54.90;28.20;;;;;;;0.81;96.69;100254.88;5033595;28;20309;-72
2022/01/25 10:46:44;;;;;;;51.40;28.93;;;;;;;0.83;95.73;100255.69;5015978;28;20194;-72
2022/01/25 10:49:12;;;;;;;55.17;29.70;;;;;;;0.89;95.96;100255.47;5013258;28;20198;-72
2022/01/25 10:51:43;;;;;;;59.47;30.63;;;;;;;0.90;95.37;100252.03;5024862;28;20199;-72
2022/01/25 10:54:12;;;;;;;57.07;30.00;;;;;;;0.83;94.86;100256.50;5036895;28;20214;-73
2022/01/25 10:56:42;;;;;;;55.60;28.60;;;;;;;0.77;95.26;100256.69;5034226;28;20186;-71
2022/01/25 10:59:11;;;;;;;60.17;30.20;;;;;;;0.69;94.66;100262.09;5034121;28;20190;-72
2022/01/25 11:01:39;;;;;;;56.00;30.17;;;;;;;0.66;94.97;100261.31;5034273;28;20647;-72
2022/01/25 11:04:09;;;;;;;54.10;29.00;;;;;;;0.55;95.51;100253.94;5033331;28;20218;-73
2022/01/25 11:06:37;;;;;;;55.47;29.33;;;;;;;0.42;95.79;100259.47;5034123;28;20300;-73
2022/01/25 11:09:07;;;;;;;55.27;29.37;;;;;;;0.25;95.90;100264.25;5034179;28;20190;-72
2022/01/25 11:11:38;;;;;;;57.57;29.67;;;;;;;0.19;96.65;100275.56;5034026;28;20214;-72
2022/01/25 11:16:53;;;;;;;78.67;37.13;;;;;;;0.13;97.93;100265.44;5033977;28;20192;-71
2022/01/25 11:19:20;;;;;;;67.80;29.87;;;;;;;0.31;94.98;100274.34;5044306;28;20261;-73
2022/01/25 11:21:48;;;;;;;42.40;21.50;;;;;;;0.42;99.62;100268.91;5034250;28;20200;-58
2022/01/25 11:24:18;;;;;;;95.30;30.23;;;;;;;0.65;100.00;100270.78;5033091;28;20300;-55
2022/01/25 11:26:48;;;;;;;59.43;31.20;;;;;;;0.88;100.00;100275.19;5033699;28;20700;-53
2022/01/25 11:29:16;;;;;;;116.50;30.23;;;;;;;1.02;100.00;100274.78;5033690;28;20200;-70
2022/01/25 11:31:48;;;;;;;54.73;27.77;;;;;;;1.02;97.67;100264.50;5033675;28;20211;-70
2022/01/25 11:34:17;;;;;;;65.10;32.27;;;;;;;1.08;95.64;100266.00;5032630;28;20450;-70
2022/01/25 11:36:52;;;;;;;78.77;31.60;;;;;;;1.09;93.13;100253.97;5033540;28;20188;-69
2022/01/25 11:39:23;;;;;;;69.17;28.40;;;;;;;1.07;92.36;100255.75;5033463;28;20262;-70
2022/01/25 11:41:51;;;;;;;62.70;31.03;;;;;;;1.12;91.95;100247.00;5033540;28;20188;-69
2022/01/25 11:44:21;;;;;;;64.20;31.30;;;;;;;1.15;92.02;100238.34;5032479;28;20222;-69
2022/01/25 11:46:51;;;;;;;67.93;30.23;;;;;;;1.32;91.43;100235.22;5033220;28;20188;-70
2022/01/25 11:49:20;;;;;;;89.60;32.20;;;;;;;1.34;89.80;100241.16;5031796;28;20199;-70
2022/01/25 11:52:06;;;;;;;63.83;33.87;;;;;;;1.49;91.51;100234.63;5033203;28;20753;-70
2022/01/25 11:54:37;;;;;;;70.63;33.33;;;;;;;1.39;91.43;100235.84;5032178;28;20192;-70
2022/01/25 11:57:15;;;;;;;66.57;32.43;;;;;;;1.53;91.44;100231.06;5033089;28;20594;-69
2022/01/25 11:59:42;;;;;;;71.23;34.03;;;;;;;1.39;90.73;100230.69;5033365;28;20191;-68
2022/01/25 12:02:10;;;;;;;63.40;31.53;;;;;;;1.39;91.05;100221.25;5033282;28;20191;-69
2022/01/25 12:04:36;;;;;;;73.60;35.27;;;;;;;1.20;91.12;100218.47;5032246;28;20432;-69
2022/01/25 12:07:23;;;;;;;70.47;33.90;;;;;;;1.20;92.17;100215.88;5015010;28;20203;-70
2022/01/25 12:10:03;;;;;;;66.00;33.27;;;;;;;1.13;93.00;100209.25;5033241;28;20721;-69
2022/01/25 12:12:30;;;;;;;67.77;34.03;;;;;;;1.00;94.67;100203.69;5032779;28;20206;-69
2022/01/25 12:14:57;;;;;;;63.57;32.73;;;;;;;0.97;94.44;100201.22;5031918;28;20192;-68
2022/01/25 12:17:26;;;;;;;63.43;33.17;;;;;;;1.11;95.08;100204.19;5032637;28;20243;-69
2022/01/25 12:19:54;;;;;;;61.27;32.63;;;;;;;1.12;95.53;100197.28;5032234;28;20568;-70
2022/01/25 12:22:34;;;;;;;57.93;30.77;;;;;;;1.20;95.97;100197.06;5032630;28;20184;-68
2022/01/25 12:25:09;;;;;;;69.87;33.00;;;;;;;1.30;96.44;100188.13;5032022;28;20190;-68
2022/01/25 12:27:46;;;;;;;60.27;32.50;;;;;;;1.45;94.40;100189.31;5032563;28;20176;-68
2022/01/25 12:30:17;;;;;;;64.30;33.63;;;;;;;1.51;94.14;100183.13;5032491;28;20261;-70